NWWW METAR and TAF weather

Enter ICAO airport designator
Station Type Date Time Source
NWWW METAR 2020/03/28 08:00 UTC NOAA

NWWW 280800Z AUTO 15015KT 9999 FEW066 24/19 Q1012 BECMG VRB02KT


Station Type Date Time Source
NWWW Decoded METAR 2020/03/28 08:00 UTC NOAA

La Tontouta Nlle-Caledonie , New Caledonia (NWWW) 22-01S 166-13E 14M
Mar 28, 2020 - 04:00 AM EDT / 2020.03.28 0800 UTC
Wind: from the SSE (150 degrees) at 17 MPH (15 KT):0
Visibility: greater than 7 mile(s):0
Sky conditions: mostly clear
Temperature: 75 F (24 C)
Dew Point: 66 F (19 C)
Relative Humidity: 73%
Pressure (altimeter): 29.88 in. Hg (1012 hPa)
ob: NWWW 280800Z AUTO 15015KT 9999 FEW066 24/19 Q1012 BECMG VRB02KT
cycle: 8

Station Type Date Time Source
NWWW TAF 2020/03/27 21:00 UTC NOAA

TAF
AMD NWWW 272156Z 2721/2818 VRB02KT CAVOK
BECMG 2721/2723 16016KT PROB30
TEMPO 2802/2806 16016G26KT
BECMG 2806/2808 VRB02KT

Example: see airport list